createdAt,value
2023-05-13T05:31:32.941Z,51.6965
2023-05-13T05:32:34.970Z,53.0573
2023-05-13T05:33:37.004Z,52.7029
2023-05-13T05:34:39.075Z,52.0093
2023-05-13T05:35:41.141Z,51.4085
2023-05-13T05:36:43.151Z,50.8626
2023-05-13T05:37:45.239Z,50.4053
2023-05-13T05:38:47.286Z,50.0063
2023-05-13T05:39:49.276Z,49.7388
2023-05-13T05:40:51.335Z,49.5177
2023-05-13T05:41:53.387Z,49.3209
2023-05-13T05:42:55.411Z,49.0709
2023-05-13T05:43:57.442Z,48.8951
2023-05-13T05:44:59.508Z,48.6929
2023-05-13T05:46:01.561Z,48.5945
2023-05-13T05:47:03.580Z,48.4092
2023-05-13T05:48:05.726Z,48.2767
2023-05-13T05:49:07.690Z,48.1411
2023-05-13T05:50:09.722Z,47.9897
2023-05-13T05:51:11.786Z,47.8842
2023-05-13T05:52:13.804Z,47.7932
2023-05-13T05:53:15.862Z,47.6464
2023-05-13T05:54:17.927Z,47.6183
2023-05-13T05:55:19.965Z,47.5837
2023-05-13T05:56:21.990Z,47.7181
2023-05-13T05:57:24.058Z,49.3317
2023-05-13T05:58:26.085Z,50.1853
2023-05-13T05:59:28.148Z,50.5564
2023-05-13T06:00:30.176Z,50.5668
2023-05-13T06:01:32.264Z,49.9149
2023-05-13T06:02:34.389Z,49.0367
2023-05-13T06:03:36.416Z,48.6042
2023-05-13T06:04:38.379Z,48.4144
2023-05-13T06:05:40.433Z,48.2685
2023-05-13T06:06:42.527Z,48.0930
2023-05-13T06:07:44.495Z,47.9459
2023-05-13T06:08:46.561Z,47.8163
2023-05-13T06:09:48.618Z,47.6755
2023-05-13T06:10:50.635Z,47.6121
2023-05-13T06:11:52.705Z,47.4986
2023-05-13T06:12:54.751Z,47.3591
2023-05-13T06:13:56.775Z,47.2580
2023-05-13T06:14:58.827Z,47.1964
2023-05-13T06:16:00.946Z,47.1866
2023-05-13T06:17:02.932Z,47.0727
2023-05-13T06:18:04.993Z,47.0433
2023-05-13T06:19:07.076Z,47.0004
2023-05-13T06:20:09.082Z,46.9290
2023-05-13T06:21:11.136Z,46.8531
2023-05-13T06:22:13.192Z,46.7757
2023-05-13T06:23:15.219Z,46.7350
2023-05-13T06:24:17.247Z,46.6890
2023-05-13T06:25:19.326Z,46.6753
2023-05-13T06:26:21.366Z,46.6608
2023-05-13T06:27:23.415Z,46.6567
2023-05-13T06:28:25.460Z,46.6908
2023-05-13T06:29:27.513Z,46.6771
2023-05-13T06:30:29.555Z,46.6487
2023-05-13T06:31:31.651Z,46.5473
2023-05-13T06:32:33.721Z,46.4841
2023-05-13T06:33:35.820Z,46.4323
2023-05-13T06:34:37.736Z,46.4055
2023-05-13T06:35:39.813Z,46.3642
2023-05-13T06:36:41.873Z,46.3528
2023-05-13T06:37:43.878Z,46.3482
2023-05-13T06:38:45.978Z,46.3628
2023-05-13T06:39:48.004Z,46.3448
2023-05-13T06:40:50.024Z,46.3311
2023-05-13T06:41:52.104Z,46.2791
2023-05-13T06:42:54.145Z,46.2217
2023-05-13T06:43:56.181Z,46.1311
2023-05-13T06:44:58.226Z,46.0941
2023-05-13T06:46:00.292Z,46.0955
2023-05-13T06:47:02.386Z,46.0882
2023-05-13T06:48:04.431Z,46.0867
2023-05-13T06:49:06.449Z,46.0515
2023-05-13T06:50:08.496Z,46.0457
2023-05-13T06:51:10.525Z,46.0272
2023-05-13T06:52:12.613Z,46.0565
2023-05-13T06:53:14.664Z,46.1082
2023-05-13T06:54:16.669Z,46.0815
2023-05-13T06:55:18.756Z,46.0817
2023-05-13T06:56:20.796Z,46.1014
2023-05-13T06:57:25.267Z,46.0655
2023-05-13T06:58:24.899Z,46.0768
2023-05-13T06:59:26.942Z,46.0538
2023-05-13T07:00:28.984Z,46.0591
2023-05-13T07:01:31.138Z,46.0052
2023-05-13T07:02:33.138Z,46.0078
2023-05-13T07:03:35.173Z,46.0013
2023-05-13T07:04:37.182Z,46.0160
2023-05-13T07:05:39.264Z,46.0932
2023-05-13T07:06:41.323Z,46.0651
2023-05-13T07:07:43.395Z,46.0313
2023-05-13T07:08:45.402Z,46.0401
2023-05-13T07:09:47.490Z,46.1541
2023-05-13T07:10:49.544Z,46.3107
2023-05-13T07:11:51.578Z,46.4242
2023-05-13T07:12:53.588Z,46.3710
2023-05-13T07:13:55.670Z,46.2997
2023-05-13T07:14:57.712Z,46.1569
2023-05-13T07:15:59.778Z,46.1709
2023-05-13T07:17:01.834Z,46.2411
2023-05-13T07:18:03.903Z,46.2053
2023-05-13T07:19:05.954Z,46.3316
2023-05-13T07:20:07.958Z,46.3908
2023-05-13T07:21:10.017Z,46.3426
2023-05-13T07:22:12.068Z,46.2712
2023-05-13T07:23:14.105Z,46.3101
2023-05-13T07:24:16.162Z,46.3213
2023-05-13T07:25:18.195Z,46.3835
2023-05-13T07:26:20.254Z,46.5744
2023-05-13T07:27:22.332Z,46.5864
2023-05-13T07:28:24.404Z,46.5647
2023-05-13T07:29:27.647Z,46.6376
2023-05-13T07:30:28.604Z,46.7877
2023-05-13T07:31:30.541Z,46.9323
2023-05-13T07:32:32.579Z,47.1649
2023-05-13T07:33:34.672Z,47.3824
2023-05-13T07:34:36.678Z,47.3639
2023-05-13T07:35:38.711Z,47.4496
2023-05-13T07:36:40.820Z,47.6874
2023-05-13T07:37:42.810Z,47.6625
2023-05-13T07:38:44.874Z,47.5950
2023-05-13T07:39:46.927Z,47.6239
2023-05-13T07:40:48.952Z,47.7690
2023-05-13T07:41:51.007Z,47.8161
2023-05-13T07:42:53.102Z,47.6545
2023-05-13T07:43:55.092Z,47.7618
2023-05-13T07:44:57.153Z,47.8003
2023-05-13T07:45:59.219Z,47.7559
2023-05-13T07:47:01.374Z,47.8031
2023-05-13T07:48:03.371Z,47.7928
2023-05-13T07:49:05.381Z,47.8801
2023-05-13T07:50:07.378Z,48.1346
2023-05-13T07:51:09.468Z,48.3391
2023-05-13T07:52:11.508Z,48.4164
2023-05-13T07:53:13.577Z,48.7865
2023-05-13T07:54:15.617Z,49.0322
2023-05-13T07:55:17.703Z,49.0592
2023-05-13T07:56:19.715Z,49.0122
2023-05-13T07:57:21.733Z,48.9978
2023-05-13T07:58:23.801Z,48.8606
2023-05-13T07:59:25.875Z,48.8462
2023-05-13T08:00:27.889Z,48.7549
2023-05-13T08:01:29.984Z,48.6733
2023-05-13T08:02:32.031Z,48.5262
2023-05-13T08:03:34.158Z,48.7292
2023-05-13T08:04:36.098Z,48.9139
2023-05-13T08:05:38.132Z,48.8385
2023-05-13T08:06:40.291Z,48.5944
2023-05-13T08:07:42.220Z,48.5603
2023-05-13T08:08:44.312Z,48.6029
2023-05-13T08:09:46.325Z,48.5991
2023-05-13T08:10:48.428Z,48.7872
2023-05-13T08:11:50.429Z,49.0292
2023-05-13T08:12:52.472Z,49.0502
2023-05-13T08:13:54.568Z,48.9455
2023-05-13T08:14:56.536Z,49.0527
2023-05-13T08:15:58.589Z,48.8758
2023-05-13T08:17:00.776Z,48.6685
2023-05-13T08:18:02.738Z,48.5960
2023-05-13T08:19:04.814Z,48.6760
2023-05-13T08:20:06.805Z,48.8518
2023-05-13T08:21:08.847Z,48.6813
2023-05-13T08:22:10.875Z,48.6922
2023-05-13T08:23:13.027Z,48.6652
2023-05-13T08:24:15.020Z,48.6289
2023-05-13T08:25:17.027Z,48.6221
2023-05-13T08:26:19.105Z,48.6190
2023-05-13T08:27:21.148Z,48.6502
2023-05-13T08:28:23.174Z,48.9270
2023-05-13T08:29:25.238Z,49.0542
2023-05-13T08:30:27.362Z,49.1022
2023-05-13T08:31:29.385Z,49.0997
2023-05-13T08:32:31.377Z,49.0961
2023-05-13T08:33:33.515Z,49.2544
2023-05-13T08:34:35.473Z,49.4723
2023-05-13T08:35:37.516Z,49.2536
2023-05-13T08:36:39.569Z,49.0788
2023-05-13T08:37:41.643Z,49.1375
2023-05-13T08:38:43.701Z,48.9559
2023-05-13T08:39:45.743Z,48.9841
2023-05-13T08:40:47.760Z,49.2155
2023-05-13T08:41:49.801Z,49.3427
2023-05-13T08:42:51.861Z,49.2480
2023-05-13T08:43:53.977Z,48.9888
2023-05-13T08:44:55.937Z,48.9663
2023-05-13T08:45:58.055Z,48.8679
2023-05-13T08:47:00.061Z,49.1301
2023-05-13T08:48:02.148Z,49.0854
2023-05-13T08:49:04.144Z,48.9679
2023-05-13T08:50:06.239Z,49.0022
2023-05-13T08:51:08.198Z,49.1056
2023-05-13T08:52:10.259Z,49.1979
2023-05-13T08:53:12.328Z,49.1011
2023-05-13T08:54:14.345Z,49.1969
2023-05-13T08:55:16.427Z,49.0530
2023-05-13T08:56:18.461Z,49.0853
2023-05-13T08:57:20.508Z,49.1372
2023-05-13T08:58:22.648Z,49.1022
2023-05-13T08:59:24.604Z,49.6258
2023-05-13T09:00:26.646Z,49.7357
2023-05-13T09:01:28.724Z,49.7174
2023-05-13T09:02:30.763Z,49.6540
2023-05-13T09:03:32.793Z,49.3396
2023-05-13T09:04:35.290Z,48.9197
2023-05-13T09:05:38.800Z,49.3702
2023-05-13T09:06:38.926Z,49.5003
2023-05-13T09:07:41.508Z,49.0649
2023-05-13T09:08:43.339Z,48.9293
2023-05-13T09:09:45.119Z,49.0285
2023-05-13T09:10:47.112Z,49.0434
2023-05-13T09:11:49.141Z,49.0088
2023-05-13T09:12:51.241Z,48.8608
2023-05-13T09:13:53.256Z,48.6815
2023-05-13T09:14:55.281Z,48.5864
2023-05-13T09:15:57.387Z,48.6679
2023-05-13T09:16:59.387Z,48.8412
2023-05-13T09:18:01.529Z,48.8421
2023-05-13T09:19:03.610Z,49.0748
2023-05-13T09:20:05.649Z,49.3952
2023-05-13T09:21:07.559Z,49.9452
2023-05-13T09:22:09.612Z,49.7928
2023-05-13T09:23:11.673Z,50.1872
2023-05-13T09:24:13.762Z,50.3204
2023-05-13T09:25:15.742Z,50.3893
2023-05-13T09:26:17.821Z,50.1336
2023-05-13T09:27:19.881Z,50.3774
2023-05-13T09:28:21.910Z,50.0035
2023-05-13T09:29:24.114Z,50.2863
2023-05-13T09:30:26.023Z,49.8771
2023-05-13T09:31:28.089Z,49.5193
2023-05-13T09:32:30.111Z,49.2612
2023-05-13T09:33:32.143Z,49.3905
2023-05-13T09:34:34.346Z,49.7122
2023-05-13T09:35:36.320Z,49.2494
2023-05-13T09:36:38.356Z,49.2604
2023-05-13T09:37:40.434Z,49.4794
2023-05-13T09:38:42.493Z,49.2992
2023-05-13T09:39:44.579Z,49.3848
2023-05-13T09:40:46.593Z,49.4647
2023-05-13T09:41:48.614Z,49.8283
2023-05-13T09:42:50.675Z,49.9753
2023-05-13T09:43:52.700Z,50.0209
2023-05-13T09:44:54.804Z,49.6924
2023-05-13T09:45:56.781Z,49.7772
2023-05-13T09:46:58.896Z,49.7095
2023-05-13T09:48:01.224Z,49.6947
2023-05-13T09:49:03.033Z,49.5652
2023-05-13T09:50:05.102Z,49.6642
2023-05-13T09:51:07.045Z,50.2828
2023-05-13T09:52:09.236Z,50.1248
2023-05-13T09:53:11.127Z,50.3572
2023-05-13T09:54:13.174Z,50.4870
2023-05-13T09:55:15.229Z,50.4751
2023-05-13T09:56:17.273Z,50.6109
2023-05-13T09:57:19.431Z,50.8104
2023-05-13T09:58:21.370Z,50.8104
2023-05-13T09:59:23.496Z,50.9921
2023-05-13T10:00:32.826Z,51.4349
2023-05-13T10:01:27.608Z,51.2997
2023-05-13T10:02:29.619Z,51.2782
2023-05-13T10:03:31.617Z,50.9571
2023-05-13T10:04:33.662Z,50.9648
2023-05-13T10:05:35.685Z,50.7733
2023-05-13T10:06:37.763Z,50.6010
2023-05-13T10:07:39.796Z,50.4126
2023-05-13T10:08:41.878Z,50.2358
2023-05-13T10:09:43.893Z,50.1968
2023-05-13T10:10:46.419Z,50.3305
2023-05-13T10:11:48.064Z,50.2937
2023-05-13T10:12:50.064Z,50.1779
2023-05-13T10:13:52.205Z,50.1257
2023-05-13T10:14:54.138Z,50.2316
2023-05-13T10:15:56.182Z,50.3853
2023-05-13T10:16:58.337Z,50.1670
2023-05-13T10:18:00.442Z,50.1020
2023-05-13T10:19:02.375Z,50.3322
2023-05-13T10:20:04.387Z,50.8185
2023-05-13T10:21:06.480Z,50.6973
2023-05-13T10:22:08.530Z,50.6118
2023-05-13T10:23:10.526Z,50.4821
2023-05-13T10:24:12.596Z,50.4735
2023-05-13T10:25:14.626Z,50.6749
2023-05-13T10:26:16.702Z,50.7339
2023-05-13T10:27:18.720Z,50.7982
2023-05-13T10:28:20.778Z,50.7825
2023-05-13T10:29:22.814Z,50.6011
2023-05-13T10:30:24.863Z,50.5430
2023-05-13T10:31:27.294Z,50.3721
2023-05-13T10:32:28.999Z,50.2782
2023-05-13T10:33:30.962Z,50.2932
2023-05-13T10:34:33.030Z,50.1930
2023-05-13T10:35:37.456Z,50.0400
2023-05-13T10:36:37.427Z,49.9039
2023-05-13T10:37:39.142Z,49.8577
2023-05-13T10:38:41.209Z,49.7406
2023-05-13T10:39:43.308Z,49.7518
2023-05-13T10:40:45.316Z,50.1197
2023-05-13T10:41:47.367Z,50.2843
2023-05-13T10:42:49.393Z,50.4598
2023-05-13T10:43:51.571Z,50.5879
2023-05-13T10:44:53.576Z,50.9267
2023-05-13T10:45:55.564Z,51.0640
2023-05-13T10:46:57.600Z,51.1174
2023-05-13T10:47:59.730Z,51.2770
2023-05-13T10:49:01.658Z,51.4329
2023-05-13T10:50:03.721Z,51.2382
2023-05-13T10:51:05.748Z,50.9192
2023-05-13T10:52:07.866Z,50.9587
2023-05-13T10:53:09.829Z,51.0087
2023-05-13T10:54:11.872Z,51.0436
2023-05-13T10:55:13.927Z,51.3083
2023-05-13T10:56:15.998Z,51.5448
2023-05-13T10:57:18.533Z,51.6903
2023-05-13T10:58:20.067Z,51.2938
2023-05-13T10:59:22.117Z,50.8559
2023-05-13T11:00:24.243Z,50.6269
2023-05-13T11:01:26.269Z,50.4098
2023-05-13T11:02:28.276Z,50.3899
2023-05-13T11:03:30.414Z,50.4674
2023-05-13T11:04:32.313Z,50.0473
2023-05-13T11:05:34.432Z,49.8455
2023-05-13T11:06:36.460Z,49.4728
2023-05-13T11:07:38.448Z,49.2854
2023-05-13T11:08:40.576Z,49.2793
2023-05-13T11:09:42.575Z,49.1889
2023-05-13T11:10:44.663Z,49.0713
2023-05-13T11:11:46.711Z,49.0176
2023-05-13T11:12:48.708Z,49.1426
2023-05-13T11:13:50.746Z,49.2421
2023-05-13T11:14:52.772Z,49.2580
2023-05-13T11:15:54.902Z,49.2589
2023-05-13T11:16:56.910Z,49.2193
2023-05-13T11:17:58.945Z,49.3265
2023-05-13T11:19:01.012Z,49.4270
2023-05-13T11:20:03.035Z,49.4799
2023-05-13T11:21:05.549Z,49.5489
2023-05-13T11:22:07.086Z,49.4370
2023-05-13T11:23:09.216Z,49.3985
2023-05-13T11:24:11.215Z,49.4486
2023-05-13T11:25:13.221Z,49.1702
2023-05-13T11:26:15.280Z,49.0973
2023-05-13T11:27:17.332Z,49.1234
2023-05-13T11:28:19.352Z,49.0970
2023-05-13T11:29:21.439Z,48.9473
2023-05-13T11:30:23.661Z,48.9097
2023-05-13T11:31:25.538Z,48.9192
2023-05-13T11:32:27.632Z,48.9693
2023-05-13T11:33:29.573Z,49.0031
2023-05-13T11:34:31.656Z,48.9385
2023-05-13T11:35:33.778Z,49.0481
2023-05-13T11:36:35.754Z,49.2490
2023-05-13T11:37:37.762Z,49.4591
2023-05-13T11:38:39.819Z,49.7183
2023-05-13T11:39:41.894Z,49.8695
2023-05-13T11:40:43.914Z,50.2088
2023-05-13T11:41:45.969Z,50.2115
2023-05-13T11:42:48.280Z,49.7179
2023-05-13T11:43:50.079Z,49.4632
2023-05-13T11:44:52.108Z,49.2185
2023-05-13T11:45:54.193Z,49.0773
2023-05-13T11:46:56.240Z,48.8271
2023-05-13T11:47:58.339Z,48.9711
2023-05-13T11:49:00.326Z,49.2023
2023-05-13T11:50:02.389Z,49.2850
2023-05-13T11:51:04.393Z,49.3188
2023-05-13T11:52:06.420Z,49.1084
2023-05-13T11:53:08.504Z,48.9691
2023-05-13T11:54:10.528Z,49.2818
2023-05-13T11:55:12.611Z,49.6494
2023-05-13T11:56:14.657Z,49.6344
2023-05-13T11:57:16.666Z,49.5532
2023-05-13T11:58:18.734Z,49.7420
2023-05-13T11:59:20.764Z,49.6962
2023-05-13T12:00:22.906Z,49.6399
2023-05-13T12:01:24.869Z,49.4283
2023-05-13T12:02:26.960Z,49.0062
2023-05-13T12:03:28.981Z,48.7259
2023-05-13T12:04:31.064Z,48.5605
2023-05-13T12:05:33.056Z,48.3315
2023-05-13T12:06:35.083Z,48.3572
2023-05-13T12:07:37.158Z,48.2091
2023-05-13T12:08:39.201Z,48.1828
2023-05-13T12:09:41.248Z,48.0816
2023-05-13T12:10:43.295Z,48.2042
2023-05-13T12:11:45.316Z,48.3039
2023-05-13T12:12:47.369Z,48.1907
2023-05-13T12:13:49.443Z,48.2693
2023-05-13T12:14:51.459Z,48.2639
2023-05-13T12:15:53.624Z,48.4325
2023-05-13T12:16:55.567Z,48.3746
2023-05-13T12:17:57.677Z,48.3952
2023-05-13T12:18:59.714Z,48.3218
2023-05-13T12:20:01.735Z,48.2499
2023-05-13T12:21:03.785Z,48.0354
2023-05-13T12:22:05.821Z,48.2697
2023-05-13T12:23:07.838Z,48.1120
2023-05-13T12:24:09.889Z,48.0344
2023-05-13T12:25:11.929Z,48.0826
2023-05-13T12:26:13.959Z,48.1488
2023-05-13T12:27:16.054Z,48.4053
2023-05-13T12:28:18.131Z,48.2466
2023-05-13T12:29:20.171Z,48.1562
2023-05-13T12:30:22.168Z,48.1384
2023-05-13T12:31:24.279Z,48.1141
2023-05-13T12:32:26.294Z,48.1072
2023-05-13T12:33:28.305Z,48.0855
2023-05-13T12:34:30.548Z,48.0182
2023-05-13T12:35:32.431Z,47.9499
2023-05-13T12:36:34.477Z,47.7104
2023-05-13T12:37:37.861Z,47.6528
2023-05-13T12:38:38.574Z,47.7744
2023-05-13T12:39:40.592Z,47.9349
2023-05-13T12:40:42.664Z,47.8357
2023-05-13T12:41:44.720Z,47.7997
2023-05-13T12:42:46.744Z,47.7836
2023-05-13T12:43:48.877Z,47.9856
2023-05-13T12:44:50.875Z,48.0756
2023-05-13T12:45:52.914Z,48.3788
2023-05-13T12:46:55.005Z,48.4012
2023-05-13T12:47:57.155Z,48.0665
2023-05-13T12:48:59.086Z,47.8855
2023-05-13T12:50:01.092Z,47.9480
2023-05-13T12:51:03.160Z,48.0817
2023-05-13T12:52:05.235Z,47.9828
2023-05-13T12:53:07.305Z,48.1249
2023-05-13T12:54:09.315Z,48.0819
2023-05-13T12:55:11.468Z,48.2499
2023-05-13T12:56:13.404Z,47.9148
2023-05-13T12:57:15.464Z,47.8595
2023-05-13T12:58:17.502Z,47.5485
2023-05-13T12:59:19.561Z,47.4008
2023-05-13T13:00:21.628Z,47.1702
2023-05-13T13:01:23.710Z,47.2411
2023-05-13T13:02:25.884Z,47.1992
2023-05-13T13:03:27.836Z,47.1329
2023-05-13T13:04:29.782Z,47.4773
2023-05-13T13:05:31.851Z,47.4336
2023-05-13T13:06:33.911Z,47.4735
2023-05-13T13:07:35.928Z,47.5046
2023-05-13T13:08:37.982Z,47.1990
2023-05-13T13:09:40.055Z,47.0448
2023-05-13T13:10:42.067Z,46.8374
2023-05-13T13:11:44.124Z,46.6631
2023-05-13T13:12:46.190Z,46.8042
2023-05-13T13:13:48.204Z,46.7262
2023-05-13T13:14:50.248Z,46.6806
2023-05-13T13:15:52.313Z,46.7307
2023-05-13T13:16:54.385Z,46.7792
2023-05-13T13:17:56.489Z,46.7012
2023-05-13T13:18:59.140Z,46.8069
2023-05-13T13:20:00.512Z,46.9217
2023-05-13T13:21:02.530Z,47.1965
2023-05-13T13:22:04.622Z,47.3214
2023-05-13T13:23:06.732Z,47.1356
2023-05-13T13:24:08.715Z,47.2981
2023-05-13T13:25:10.734Z,47.4803
2023-05-13T13:26:12.769Z,47.4956
2023-05-13T13:27:14.822Z,47.4611
2023-05-13T13:28:16.893Z,47.2893
2023-05-13T13:29:19.018Z,47.4339
2023-05-13T13:30:21.007Z,47.4739
2023-05-13T13:31:23.019Z,47.3997
2023-05-13T13:32:25.081Z,47.3721
2023-05-13T13:33:27.102Z,47.4004
2023-05-13T13:34:29.153Z,47.6896
2023-05-13T13:35:31.215Z,47.9219
2023-05-13T13:36:33.225Z,48.3752
2023-05-13T13:37:36.256Z,48.0232
2023-05-13T13:38:37.341Z,47.4743
2023-05-13T13:39:39.488Z,47.5278
2023-05-13T13:40:41.593Z,47.5898
2023-05-13T13:41:43.544Z,47.6004
2023-05-13T13:42:45.617Z,47.9464
2023-05-13T13:43:47.673Z,47.5600
2023-05-13T13:44:49.708Z,47.4855
2023-05-13T13:45:51.768Z,47.4345
2023-05-13T13:46:53.861Z,47.4080
2023-05-13T13:47:55.922Z,47.5967
2023-05-13T13:48:57.944Z,47.7222
2023-05-13T13:49:59.966Z,47.4922
2023-05-13T13:51:01.992Z,47.5760
2023-05-13T13:52:04.043Z,47.4639
2023-05-13T13:53:06.105Z,47.3208
2023-05-13T13:54:08.130Z,47.1770
2023-05-13T13:55:10.372Z,47.0640
2023-05-13T13:56:12.266Z,47.4062
2023-05-13T13:57:14.931Z,47.5278
2023-05-13T13:58:16.421Z,47.4304
2023-05-13T13:59:18.531Z,47.2806
2023-05-13T14:00:20.745Z,47.1670
2023-05-13T14:01:22.476Z,47.1601
2023-05-13T14:02:24.672Z,47.2333
2023-05-13T14:03:26.743Z,47.2333
2023-05-13T14:04:28.633Z,47.2047
2023-05-13T14:05:30.703Z,47.3143
2023-05-13T14:06:32.695Z,47.3898
2023-05-13T14:07:34.745Z,47.4684
2023-05-13T14:08:36.809Z,47.4943
2023-05-13T14:09:38.861Z,47.6713
2023-05-13T14:10:40.927Z,47.5956
2023-05-13T14:11:42.943Z,47.5845
2023-05-13T14:12:44.985Z,47.5003
2023-05-13T14:13:47.083Z,47.4953
2023-05-13T14:14:49.135Z,47.2263
2023-05-13T14:15:51.210Z,47.1191
2023-05-13T14:16:53.463Z,47.0998
2023-05-13T14:17:55.265Z,47.4251
2023-05-13T14:18:57.372Z,47.3836
2023-05-13T14:19:59.373Z,47.3743
2023-05-13T14:21:01.408Z,47.2376
2023-05-13T14:22:03.429Z,47.3471
2023-05-13T14:23:05.660Z,47.5503
2023-05-13T14:24:07.559Z,47.8100
2023-05-13T14:25:09.627Z,47.7388
2023-05-13T14:26:11.618Z,47.5938
2023-05-13T14:27:13.726Z,47.5747
2023-05-13T14:28:15.773Z,47.7438
2023-05-13T14:29:17.764Z,47.9902
2023-05-13T14:30:20.153Z,48.4232
2023-05-13T14:31:21.922Z,48.4869
2023-05-13T14:32:23.987Z,48.5191
2023-05-13T14:33:25.984Z,48.5927
2023-05-13T14:34:28.021Z,48.8434
2023-05-13T14:35:30.059Z,49.1025
2023-05-13T14:36:32.143Z,48.9885
2023-05-13T14:37:34.294Z,48.9552
2023-05-13T14:38:36.201Z,48.8300
2023-05-13T14:39:38.314Z,49.0311
2023-05-13T14:40:40.313Z,48.7177
2023-05-13T14:41:42.340Z,48.4990
2023-05-13T14:42:44.385Z,48.2343
2023-05-13T14:43:46.469Z,47.9155
2023-05-13T14:44:48.498Z,47.8324
2023-05-13T14:45:50.569Z,47.6035
2023-05-13T14:46:52.748Z,47.6382
2023-05-13T14:47:54.682Z,47.8051
2023-05-13T14:48:56.710Z,47.8160
2023-05-13T14:49:58.742Z,48.0250
2023-05-13T14:51:00.769Z,48.4258
2023-05-13T14:52:02.870Z,48.2996
2023-05-13T14:53:04.840Z,48.1288
2023-05-13T14:54:06.903Z,48.0691
2023-05-13T14:55:09.045Z,48.0630
2023-05-13T14:56:10.995Z,48.1816
2023-05-13T14:57:13.042Z,48.2803
2023-05-13T14:58:15.103Z,48.6920
2023-05-13T14:59:18.073Z,48.4832
2023-05-13T15:00:19.342Z,48.4864
2023-05-13T15:01:21.299Z,48.3753
2023-05-13T15:02:23.308Z,48.1553
2023-05-13T15:03:25.379Z,48.1299
2023-05-13T15:04:27.362Z,48.1179
2023-05-13T15:05:29.416Z,48.0821
2023-05-13T15:06:31.492Z,48.1620
2023-05-13T15:07:33.598Z,48.1969
2023-05-13T15:08:35.589Z,48.3704
2023-05-13T15:09:37.649Z,48.4630
2023-05-13T15:10:39.677Z,48.5670
2023-05-13T15:11:42.273Z,48.6677
2023-05-13T15:12:43.783Z,48.7234
2023-05-13T15:13:45.799Z,48.7822
2023-05-13T15:14:47.868Z,48.8734
2023-05-13T15:15:50.043Z,48.7464
2023-05-13T15:16:52.031Z,48.9345
2023-05-13T15:17:54.061Z,48.9781
2023-05-13T15:18:56.187Z,48.7160
2023-05-13T15:19:58.123Z,48.4761
2023-05-13T15:21:00.197Z,48.3963
2023-05-13T15:22:02.225Z,48.4856
2023-05-13T15:23:04.250Z,48.5948
2023-05-13T15:24:06.286Z,48.6260
2023-05-13T15:25:08.389Z,48.5105
2023-05-13T15:26:10.553Z,48.5526
2023-05-13T15:27:12.431Z,48.7478
2023-05-13T15:28:14.520Z,48.7389
2023-05-13T15:29:16.539Z,48.4530
2023-05-13T15:30:18.600Z,48.3999
2023-05-13T15:31:20.663Z,48.6038
2023-05-13T15:32:22.683Z,48.7226
2023-05-13T15:33:24.710Z,48.6726
2023-05-13T15:34:26.793Z,48.5855
2023-05-13T15:35:28.842Z,48.3876
2023-05-13T15:36:30.854Z,48.2307
2023-05-13T15:37:32.994Z,48.1226
2023-05-13T15:38:34.974Z,48.1674
2023-05-13T15:39:37.011Z,48.3010
2023-05-13T15:40:39.066Z,48.0451
2023-05-13T15:41:41.125Z,47.9570
2023-05-13T15:42:43.191Z,47.9871
2023-05-13T15:43:45.235Z,48.0030
2023-05-13T15:44:47.238Z,47.9043
2023-05-13T15:45:49.310Z,47.6942
2023-05-13T15:46:51.471Z,47.5476
2023-05-13T15:47:53.555Z,47.5464
2023-05-13T15:48:55.478Z,47.5216
2023-05-13T15:49:57.508Z,47.4747
2023-05-13T15:50:59.593Z,47.3108
2023-05-13T15:52:01.620Z,47.2126
2023-05-13T15:53:03.626Z,47.1208
2023-05-13T15:54:05.708Z,46.9676
2023-05-13T15:55:07.748Z,46.7991
2023-05-13T15:56:09.762Z,46.7435
2023-05-13T15:57:11.838Z,46.6805
2023-05-13T15:58:13.885Z,46.6285
2023-05-13T15:59:15.912Z,46.5906
